Time;durP1;ratioP1;P1;durP2;ratioP2;P2;SDS_P1;SDS_P2;PMS_P1;PMS_P2;Temp;Humidity;BMP_temperature;BMP_pressure;BME280_temperature;BME280_humidity;BME280_pressure;Samples;Min_cycle;Max_cycle;Signal;HPM_P1;HPM_P2
2021/11/20 00:01:52;;;;;;;66.40;35.92;;;;;;;12.90;87.13;101938.53;4976602;28;20055;-65
2021/11/20 00:04:38;;;;;;;66.80;37.22;;;;;;;12.90;87.09;101938.53;4974038;28;20062;-65
2021/11/20 00:07:23;;;;;;;66.22;36.22;;;;;;;12.89;87.23;101931.44;4972074;28;20500;-66
2021/11/20 00:10:10;;;;;;;63.00;33.70;;;;;;;12.88;87.10;101929.81;4973710;28;20050;-67
2021/11/20 00:12:57;;;;;;;61.78;33.90;;;;;;;12.87;87.18;101931.75;4978012;28;20043;-66
2021/11/20 00:15:46;;;;;;;69.55;36.13;;;;;;;12.88;87.19;101935.28;4975827;28;20034;-66
2021/11/20 00:18:32;;;;;;;65.53;33.42;;;;;;;12.84;87.07;101935.91;4975205;28;20043;-66
2021/11/20 00:21:20;;;;;;;63.90;33.85;;;;;;;12.86;87.23;101933.66;4976650;28;20047;-66
2021/11/20 00:24:28;;;;;;;68.20;35.75;;;;;;;12.85;87.43;101926.56;4976283;28;20042;-65
2021/11/20 00:27:21;;;;;;;67.00;33.88;;;;;;;12.83;87.22;101928.81;4973419;28;20039;-66
2021/11/20 00:30:24;;;;;;;66.63;35.38;;;;;;;12.83;87.28;101923.34;4973638;28;20046;-65
2021/11/20 00:33:10;;;;;;;61.40;34.00;;;;;;;12.82;87.38;101927.19;4970848;28;20046;-65
2021/11/20 00:35:58;;;;;;;57.30;33.38;;;;;;;12.80;87.33;101934.03;4976825;28;20042;-64
2021/11/20 00:38:44;;;;;;;62.83;33.92;;;;;;;12.76;87.82;101939.28;4967110;28;20043;-64
2021/11/20 00:41:30;;;;;;;65.22;33.13;;;;;;;12.70;87.66;101937.75;4963528;28;20046;-64
2021/11/20 00:44:16;;;;;;;56.47;29.58;;;;;;;12.67;87.62;101924.72;4977460;28;20042;-64
2021/11/20 00:47:01;;;;;;;59.67;31.98;;;;;;;12.71;87.71;101935.84;4945084;28;20050;-64
2021/11/20 00:49:46;;;;;;;47.35;27.73;;;;;;;12.68;87.99;101931.81;4964846;28;20042;-64
2021/11/20 00:52:32;;;;;;;56.63;30.38;;;;;;;12.63;87.62;101937.34;4977384;28;20420;-64
2021/11/20 00:55:23;;;;;;;56.55;31.13;;;;;;;12.63;87.06;101934.63;4975492;28;20644;-65
2021/11/20 00:58:08;;;;;;;58.60;32.08;;;;;;;12.53;86.43;101929.34;4979074;28;20050;-64
2021/11/20 01:00:56;;;;;;;61.38;29.95;;;;;;;12.58;87.33;101931.16;4962335;28;20055;-64
2021/11/20 01:03:43;;;;;;;59.90;31.80;;;;;;;12.58;87.27;101926.53;4960085;28;20047;-64
2021/11/20 01:06:29;;;;;;;53.47;30.80;;;;;;;12.57;87.52;101935.00;4978301;28;20039;-66
2021/11/20 01:09:18;;;;;;;61.88;32.08;;;;;;;12.59;87.81;101928.16;4962288;28;20050;-63
2021/11/20 01:12:12;;;;;;;56.08;31.10;;;;;;;12.62;88.18;101929.47;4960440;28;20039;-65
2021/11/20 01:14:59;;;;;;;70.00;31.92;;;;;;;12.59;88.64;101933.59;4956710;28;20050;-64
2021/11/20 01:17:48;;;;;;;62.03;31.50;;;;;;;12.57;88.41;101935.81;4959988;28;20455;-65
2021/11/20 01:20:33;;;;;;;51.10;31.55;;;;;;;12.55;88.15;101927.09;4973690;28;20555;-65
2021/11/20 01:23:21;;;;;;;47.40;24.80;;;;;;;12.51;87.40;101923.38;4963338;28;20035;-65
2021/11/20 01:26:18;;;;;;;55.08;28.77;;;;;;;12.54;88.04;101920.06;4960925;28;20046;-64
2021/11/20 01:29:12;;;;;;;54.85;29.85;;;;;;;12.55;87.97;101920.84;4979091;28;20047;-65
2021/11/20 01:32:01;;;;;;;51.58;27.58;;;;;;;12.55;88.43;101923.56;4943457;28;20039;-65
2021/11/20 01:34:49;;;;;;;57.83;30.13;;;;;;;12.56;88.61;101928.72;4966613;28;20047;-65
2021/11/20 01:37:38;;;;;;;54.13;30.20;;;;;;;12.56;88.82;101917.00;4954297;28;20043;-65
2021/11/20 01:40:26;;;;;;;54.75;28.08;;;;;;;12.55;88.75;101921.66;4970596;28;20046;-65
2021/11/20 01:43:13;;;;;;;49.15;27.20;;;;;;;12.55;88.75;101910.72;4953324;28;20043;-65
2021/11/20 01:46:05;;;;;;;55.10;28.40;;;;;;;12.56;89.15;101909.63;4961582;28;20046;-65
2021/11/20 01:49:20;;;;;;;60.17;29.38;;;;;;;12.54;89.18;101903.69;4959413;28;20507;-65
2021/11/20 01:52:23;;;;;;;49.38;26.92;;;;;;;12.53;89.14;101896.59;4962319;28;20043;-66
2021/11/20 01:55:34;;;;;;;50.47;26.63;;;;;;;12.54;89.49;101890.03;4959285;28;20046;-67
2021/11/20 01:59:23;;;;;;;48.38;26.60;;;;;;;12.55;89.26;101893.56;4975034;28;20512;-66
2021/11/20 02:02:44;;;;;;;53.40;28.85;;;;;;;12.54;89.47;101892.78;4995863;28;20042;-65
2021/11/20 02:06:09;;;;;;;57.00;28.57;;;;;;;12.53;89.38;101891.13;4973851;28;20481;-66
2021/11/20 02:09:29;;;;;;;58.95;28.50;;;;;;;12.49;88.85;101884.66;4961391;28;20043;-65
2021/11/20 02:12:49;;;;;;;53.97;27.77;;;;;;;12.51;89.15;101887.06;4978614;28;20038;-65
2021/11/20 02:15:49;;;;;;;48.15;26.95;;;;;;;12.53;89.19;101887.59;4962230;28;20492;-66
2021/11/20 02:18:42;;;;;;;47.35;26.33;;;;;;;12.54;89.58;101889.22;4963100;28;20034;-64
2021/11/20 02:21:43;;;;;;;49.72;26.58;;;;;;;12.56;89.68;101882.34;4961034;28;20047;-65
2021/11/20 02:24:28;;;;;;;45.10;24.70;;;;;;;12.53;89.66;101876.69;4959143;28;20515;-64
2021/11/20 02:27:43;;;;;;;50.22;26.23;;;;;;;12.53;89.26;101876.69;4976496;28;20043;-65
2021/11/20 02:30:31;;;;;;;50.13;26.70;;;;;;;12.51;89.13;101866.06;4978916;28;20400;-65
2021/11/20 02:33:20;;;;;;;47.35;24.13;;;;;;;12.51;89.46;101863.34;4962449;28;20046;-65
2021/11/20 02:36:19;;;;;;;51.30;25.00;;;;;;;12.54;89.78;101865.47;4973058;28;20043;-65
2021/11/20 02:39:13;;;;;;;49.42;26.20;;;;;;;12.53;89.75;101863.03;4964440;28;20038;-65
2021/11/20 02:42:02;;;;;;;33.97;19.02;;;;;;;12.52;89.79;101862.22;4961475;28;20034;-65
2021/11/20 02:44:48;;;;;;;45.92;25.73;;;;;;;12.52;89.93;101854.03;4960100;28;20051;-64
2021/11/20 02:47:37;;;;;;;52.33;25.40;;;;;;;12.48;89.43;101844.03;4958929;28;20050;-64
2021/11/20 02:50:30;;;;;;;52.67;25.60;;;;;;;12.52;89.66;101851.31;4961663;28;20050;-66
2021/11/20 02:53:29;;;;;;;45.00;23.45;;;;;;;12.52;89.74;101848.59;4972849;28;20039;-66
2021/11/20 02:56:21;;;;;;;43.55;23.33;;;;;;;12.52;90.05;101847.78;4957960;28;20047;-65
2021/11/20 02:59:06;;;;;;;44.25;25.38;;;;;;;12.51;89.76;101840.69;4960564;28;20035;-64
2021/11/20 03:01:58;;;;;;;47.60;24.30;;;;;;;12.51;89.71;101830.59;4963961;28;20050;-64
2021/11/20 03:04:44;;;;;;;44.00;23.58;;;;;;;12.51;89.89;101830.59;4961521;28;20039;-64
2021/11/20 03:07:30;;;;;;;39.08;22.00;;;;;;;12.53;89.93;101828.38;4958739;28;20050;-64
2021/11/20 03:10:15;;;;;;;42.50;23.80;;;;;;;12.51;89.82;101822.41;4958444;28;20046;-64
2021/11/20 03:13:00;;;;;;;33.00;17.65;;;;;;;12.53;89.84;101811.22;4962126;28;20051;-64
2021/11/20 03:15:46;;;;;;;39.50;22.40;;;;;;;12.51;89.59;101807.97;4959939;28;20047;-65
2021/11/20 03:18:32;;;;;;;43.22;23.23;;;;;;;12.51;90.01;101814.22;4972649;28;20047;-65
2021/11/20 03:21:17;;;;;;;40.10;22.38;;;;;;;12.51;89.92;101810.69;4961889;28;20043;-64
2021/11/20 03:24:05;;;;;;;39.55;22.38;;;;;;;12.51;89.94;101816.94;4960013;28;20042;-64
2021/11/20 03:26:53;;;;;;;38.88;22.40;;;;;;;12.49;90.20;101819.19;4972019;28;20054;-65
2021/11/20 03:29:38;;;;;;;38.53;21.40;;;;;;;12.49;89.63;101812.94;4972683;28;20047;-66
2021/11/20 03:32:24;;;;;;;39.03;21.65;;;;;;;12.49;89.94;101816.47;4959880;28;20047;-66
2021/11/20 03:35:09;;;;;;;39.90;23.10;;;;;;;12.49;89.88;101813.75;4958267;28;20038;-66
2021/11/20 03:37:55;;;;;;;39.78;23.08;;;;;;;12.49;89.92;101815.66;4962206;28;20047;-65
2021/11/20 03:40:44;;;;;;;39.60;21.33;;;;;;;12.48;89.63;101805.84;4960267;28;20046;-66
2021/11/20 03:43:30;;;;;;;35.72;21.05;;;;;;;12.44;89.48;101803.69;4958527;28;20447;-65
2021/11/20 03:46:15;;;;;;;39.35;21.77;;;;;;;12.46;89.64;101805.31;4977892;28;20038;-66
2021/11/20 03:49:00;;;;;;;29.58;16.67;;;;;;;12.46;89.72;101808.88;4976331;28;20043;-66
2021/11/20 03:51:45;;;;;;;31.17;16.90;;;;;;;12.46;90.21;101797.94;4976314;28;20042;-65
2021/11/20 03:54:31;;;;;;;39.72;22.13;;;;;;;12.44;89.85;101797.47;4949955;28;20038;-65
2021/11/20 03:57:15;;;;;;;;;;;;;;;12.46;89.86;101799.88;4977431;28;20035;-65
2021/11/20 04:00:04;;;;;;;30.00;16.77;;;;;;;12.42;89.91;101797.75;4962173;28;19914;-64
2021/11/20 04:02:59;;;;;;;39.22;21.42;;;;;;;12.40;89.75;101794.50;4976038;28;20042;-65
2021/11/20 04:05:45;;;;;;;35.08;19.85;;;;;;;12.39;89.63;101792.09;4977557;28;20051;-65
2021/11/20 04:08:29;;;;;;;31.15;17.42;;;;;;;12.42;89.57;101786.03;4975948;28;20520;-65
2021/11/20 04:11:29;;;;;;;46.95;23.35;;;;;;;12.38;89.12;101785.03;4964861;28;20054;-64
2021/11/20 04:14:17;;;;;;;42.63;22.08;;;;;;;12.35;88.79;101783.69;4967779;28;20046;-66
2021/11/20 04:17:04;;;;;;;35.88;19.85;;;;;;;12.39;89.39;101781.19;4962196;28;20043;-66
2021/11/20 04:19:51;;;;;;;37.58;21.05;;;;;;;12.39;89.41;101786.66;4964365;28;20038;-67
2021/11/20 04:22:38;;;;;;;38.75;20.73;;;;;;;12.40;89.90;101782.78;4975674;28;20054;-66
2021/11/20 04:25:23;;;;;;;38.08;20.95;;;;;;;12.41;89.40;101781.69;4965928;28;20058;-66
2021/11/20 04:28:18;;;;;;;38.20;19.83;;;;;;;12.38;89.23;101780.38;4978547;28;20046;-66
2021/11/20 04:31:09;;;;;;;45.13;21.98;;;;;;;12.32;88.50;101784.31;4961843;28;20290;-66
2021/11/20 04:33:55;;;;;;;42.22;21.02;;;;;;;12.37;89.01;101780.66;4965290;28;20034;-66
2021/11/20 04:36:40;;;;;;;42.42;20.38;;;;;;;12.37;88.62;101783.41;4963751;28;20042;-66
2021/11/20 04:39:27;;;;;;;47.03;22.27;;;;;;;12.37;89.20;101781.47;4967289;28;20042;-66
2021/11/20 04:42:12;;;;;;;;;;;;;;;12.37;88.82;101777.94;4965155;28;20030;-66
2021/11/20 04:44:57;;;;;;;33.05;18.35;;;;;;;12.37;89.01;101786.13;4956286;28;19917;-66
2021/11/20 04:47:42;;;;;;;35.95;19.73;;;;;;;12.38;89.27;101790.47;4974898;28;20043;-66
2021/11/20 04:50:33;;;;;;;38.50;19.40;;;;;;;12.38;88.98;101785.03;4964937;28;20042;-66
2021/11/20 04:53:18;;;;;;;37.15;19.67;;;;;;;12.37;88.76;101791.59;4963589;28;20471;-66
2021/11/20 04:56:03;;;;;;;35.13;19.25;;;;;;;12.35;88.31;101791.06;4960520;28;20135;-66
2021/11/20 04:58:50;;;;;;;35.35;19.50;;;;;;;12.34;87.93;101792.19;4965341;28;20046;-66
2021/11/20 05:01:37;;;;;;;36.80;19.35;;;;;;;12.35;88.22;101793.78;4963242;28;20051;-66
2021/11/20 05:04:22;;;;;;;25.75;14.90;;;;;;;12.33;88.82;101788.66;4961571;28;20039;-65
2021/11/20 05:07:08;;;;;;;24.80;14.90;;;;;;;12.35;89.27;101782.88;4958210;28;20055;-65
2021/11/20 05:09:55;;;;;;;36.15;19.17;;;;;;;12.35;89.75;101785.59;4961654;28;20051;-65
2021/11/20 05:12:41;;;;;;;33.63;18.13;;;;;;;12.34;89.71;101784.00;4954954;28;20047;-65
2021/11/20 05:15:36;;;;;;;37.97;19.75;;;;;;;12.34;89.86;101776.59;4971999;28;20047;-66
2021/11/20 05:18:21;;;;;;;36.60;19.02;;;;;;;12.35;89.92;101774.69;4970241;23;20051;-77
2021/11/20 05:21:14;;;;;;;30.52;16.50;;;;;;;12.37;90.36;101777.94;4954619;28;20039;-78
2021/11/20 05:24:01;;;;;;;38.28;19.67;;;;;;;12.39;90.15;101775.72;4947327;28;20051;-77
2021/11/20 05:26:46;;;;;;;25.83;13.18;;;;;;;12.41;90.16;101781.69;4943254;28;20043;-78
2021/11/20 05:32:18;;;;;;;36.88;18.60;;;;;;;12.41;89.97;101781.69;4945712;28;20509;-77
2021/11/20 05:35:06;;;;;;;36.63;17.60;;;;;;;12.41;90.26;101787.13;4943773;28;20044;-77
2021/11/20 05:37:52;;;;;;;32.45;17.67;;;;;;;12.40;90.23;101780.06;4950201;28;20043;-78
2021/11/20 05:40:38;;;;;;;33.55;17.08;;;;;;;12.39;90.16;101775.72;4947604;28;20054;-77
2021/11/20 05:43:26;;;;;;;30.38;16.55;;;;;;;12.39;90.35;101775.72;4947923;28;20422;-77
2021/11/20 05:46:23;;;;;;;32.65;16.80;;;;;;;12.37;90.24;101777.94;4953021;28;20047;-78
2021/11/20 05:49:11;;;;;;;31.13;16.80;;;;;;;12.38;90.38;101774.13;4953070;28;20035;-77
2021/11/20 05:51:56;;;;;;;23.65;14.20;;;;;;;12.35;90.01;101774.69;4945436;28;20047;-77
2021/11/20 05:54:42;;;;;;;;;;;;;;;12.35;90.30;101774.69;4952210;29;20043;-77
2021/11/20 05:57:34;;;;;;;35.65;19.85;;;;;;;12.29;90.15;101765.00;4949375;28;20384;-77
2021/11/20 06:00:30;;;;;;;33.53;18.38;;;;;;;12.33;90.08;101776.94;4940228;28;20040;-77
2021/11/20 06:03:17;;;;;;;37.60;19.17;;;;;;;12.32;90.11;101786.22;4956224;28;20498;-77
2021/11/20 06:06:11;;;;;;;38.78;19.83;;;;;;;12.29;90.00;101782.16;4954259;28;20050;-76
2021/11/20 06:08:56;;;;;;;36.33;17.75;;;;;;;12.30;90.30;101778.31;4951793;28;20051;-77
2021/11/20 06:11:41;;;;;;;28.70;15.18;;;;;;;12.29;90.41;101770.47;4958672;28;20039;-77
2021/11/20 06:14:26;;;;;;;;;;;;;;;12.29;89.67;101775.91;4936927;29;20048;-76
2021/11/20 06:17:10;;;;;;;30.50;14.27;;;;;;;12.29;90.08;101765.78;4960549;28;19914;-77
2021/11/20 06:19:57;;;;;;;37.30;18.40;;;;;;;12.30;90.08;101766.59;4958459;28;20046;-77
2021/11/20 06:22:42;;;;;;;;;;;;;;;12.31;90.37;101762.78;4961597;28;20042;-76
2021/11/20 06:25:29;;;;;;;48.75;17.73;;;;;;;12.30;90.51;101761.97;4941345;28;20153;-76
2021/11/20 06:28:15;;;;;;;36.38;18.35;;;;;;;12.29;90.39;101759.56;4940845;29;20051;-77
2021/11/20 06:31:02;;;;;;;39.00;17.23;;;;;;;12.31;90.46;101760.03;4958427;28;20042;-76
2021/11/20 06:33:50;;;;;;;51.60;18.67;;;;;;;12.30;90.55;101755.69;4958810;28;20039;-77
2021/11/20 06:36:57;;;;;;;41.13;17.85;;;;;;;12.29;91.01;101759.56;4974077;28;20042;-77
2021/11/20 06:39:56;;;;;;;49.30;18.15;;;;;;;12.29;90.88;101763.06;4957391;28;20076;-76
2021/11/20 06:42:43;;;;;;;48.45;20.80;;;;;;;12.28;90.63;101764.19;4957042;28;20050;-77
2021/11/20 06:45:32;;;;;;;50.42;18.90;;;;;;;12.30;90.73;101767.41;4961089;28;20043;-77
2021/11/20 06:48:18;;;;;;;49.75;18.23;;;;;;;12.24;90.93;101759.66;4971901;28;20047;-77
2021/11/20 06:51:18;;;;;;;46.33;18.23;;;;;;;12.28;91.16;101769.66;4960641;28;20042;-76
2021/11/20 06:54:22;;;;;;;50.15;19.55;;;;;;;12.29;91.10;101765.00;4966852;28;20413;-77
2021/11/20 06:57:49;;;;;;;48.63;17.48;;;;;;;12.30;91.40;101777.50;4966873;28;20409;-78
2021/11/20 07:00:55;;;;;;;50.22;21.02;;;;;;;12.27;91.09;101767.22;4945976;28;20043;-77
2021/11/20 07:03:54;;;;;;;55.50;20.30;;;;;;;12.30;91.32;101770.16;4953610;28;20039;-78
2021/11/20 07:06:44;;;;;;;68.75;20.80;;;;;;;12.27;91.48;101759.03;4952058;28;20043;-77
2021/11/20 07:09:29;;;;;;;55.72;19.60;;;;;;;12.28;91.53;101760.66;4958315;28;20043;-77
2021/11/20 07:12:14;;;;;;;;;;;;;;;12.30;91.75;101767.41;4968352;28;20050;-77
2021/11/20 07:15:00;;;;;;;55.17;18.75;;;;;;;12.28;91.45;101768.84;4968712;28;19914;-85
2021/11/20 07:17:45;;;;;;;;;;;;;;;12.29;91.83;101770.47;4974673;28;20050;-77
2021/11/20 07:20:50;;;;;;;64.10;19.90;;;;;;;12.27;91.53;101769.94;4975246;28;20380;-77
2021/11/20 07:23:38;;;;;;;71.43;22.25;;;;;;;12.27;91.53;101768.03;4979515;28;20051;-78
2021/11/20 07:26:24;;;;;;;62.80;20.38;;;;;;;12.27;91.62;101778.13;4966032;28;20038;-77
2021/11/20 07:29:10;;;;;;;47.85;18.60;;;;;;;12.23;92.22;101771.66;4963789;28;20046;-78
2021/11/20 07:32:14;;;;;;;51.85;20.40;;;;;;;12.21;92.13;101779.31;4963453;28;20047;-78
2021/11/20 07:34:59;;;;;;;35.95;14.57;;;;;;;12.21;92.19;101782.06;4959071;28;20051;-77
2021/11/20 07:37:44;;;;;;;58.38;19.63;;;;;;;12.21;92.01;101782.06;4959304;28;20038;-77
2021/11/20 07:40:32;;;;;;;49.63;15.70;;;;;;;12.21;92.37;101779.31;4958850;28;20059;-77
2021/11/20 07:43:17;;;;;;;47.78;18.23;;;;;;;12.20;92.35;101783.16;4961928;28;20046;-77
2021/11/20 07:46:21;;;;;;;55.67;20.25;;;;;;;12.20;92.32;101780.44;4969627;28;20050;-78
2021/11/20 07:49:11;;;;;;;46.28;18.10;;;;;;;12.20;92.52;101774.97;4962056;28;20065;-77
2021/11/20 07:51:57;;;;;;;46.10;16.95;;;;;;;12.20;92.42;101778.50;4969034;28;20047;-77
2021/11/20 07:54:42;;;;;;;;;;;;;;;12.20;92.56;101774.97;4962387;28;20047;-77
2021/11/20 07:57:42;;;;;;;49.83;18.92;;;;;;;12.21;92.61;101773.88;4973401;28;19925;-77
2021/11/20 08:00:28;;;;;;;60.22;20.27;;;;;;;12.21;92.71;101776.59;4965299;28;20047;-78
2021/11/20 08:03:21;;;;;;;60.22;21.45;;;;;;;12.21;92.61;101779.31;4963024;28;20043;-77
2021/11/20 08:06:11;;;;;;;55.75;19.60;;;;;;;12.20;92.95;101774.97;4956991;28;20501;-77
2021/11/20 08:09:15;;;;;;;71.20;21.98;;;;;;;12.21;93.11;101774.69;4974472;28;20050;-77
2021/11/20 08:12:22;;;;;;;61.38;18.98;;;;;;;12.21;93.06;101777.41;4969708;28;20042;-76
2021/11/20 08:15:15;;;;;;;69.28;24.13;;;;;;;12.22;93.01;101781.75;4967658;28;20047;-77
2021/11/20 08:18:32;;;;;;;58.53;25.75;;;;;;;11.88;82.96;101775.81;4953527;28;20030;-79
2021/11/20 08:21:35;;;;;;;63.13;27.45;;;;;;;11.78;78.04;101775.97;4981991;28;20043;-79
2021/11/20 08:24:33;;;;;;;111.35;35.60;;;;;;;11.85;81.05;101774.47;4958608;28;20449;-79
2021/11/20 08:27:18;;;;;;;56.80;25.83;;;;;;;11.53;78.78;101769.75;4956493;28;20417;-79
2021/11/20 08:30:16;;;;;;;57.13;24.90;;;;;;;12.34;79.35;101778.56;4960289;28;20035;-80
2021/11/20 08:33:08;;;;;;;51.13;25.35;;;;;;;11.98;77.66;101771.00;4955212;28;20039;-79
2021/11/20 08:36:32;;;;;;;49.60;23.98;;;;;;;12.25;77.27;101777.59;4964338;28;20046;-78
2021/11/20 08:39:44;;;;;;;54.33;26.42;;;;;;;12.43;75.49;101774.81;4954470;28;20047;-79
2021/11/20 08:42:30;;;;;;;41.65;19.45;;;;;;;12.36;76.26;101776.31;4962637;28;20039;-79
2021/11/20 08:45:19;;;;;;;49.45;25.20;;;;;;;12.08;76.06;101777.38;4959436;28;20468;-79
2021/11/20 08:48:06;;;;;;;52.15;24.48;;;;;;;12.32;76.66;101775.31;4961158;28;20046;-78
2021/11/20 08:51:01;;;;;;;46.85;26.02;;;;;;;12.39;74.23;101770.28;4959112;28;20042;-79
2021/11/20 08:53:49;;;;;;;49.55;26.15;;;;;;;12.50;73.61;101766.22;4966647;28;20498;-78
2021/11/20 08:56:38;;;;;;;52.22;26.85;;;;;;;12.58;76.50;101767.47;4964908;28;20046;-78
2021/11/20 08:59:27;;;;;;;46.10;22.75;;;;;;;12.83;73.14;101769.69;4963380;28;20035;-78
2021/11/20 09:02:35;;;;;;;50.45;24.30;;;;;;;12.82;72.64;101771.59;4969814;28;20042;-78
2021/11/20 09:05:39;;;;;;;46.10;23.67;;;;;;;12.42;71.42;101769.66;4975655;28;20047;-76
2021/11/20 09:08:31;;;;;;;45.20;23.60;;;;;;;12.47;72.70;101775.03;4960668;28;20046;-76
2021/11/20 09:11:26;;;;;;;53.90;25.02;;;;;;;12.18;74.48;101774.47;4971983;28;20039;-76
2021/11/20 09:14:25;;;;;;;56.08;23.58;;;;;;;12.00;74.64;101776.13;4963062;28;20409;-77
2021/11/20 09:17:39;;;;;;;54.95;26.10;;;;;;;12.07;76.68;101773.03;4966861;28;20038;-76
2021/11/20 09:20:25;;;;;;;46.20;23.27;;;;;;;12.03;75.93;101770.09;4960162;28;20038;-76
2021/11/20 09:23:11;;;;;;;51.28;24.92;;;;;;;12.05;75.56;101775.25;4959398;28;20046;-77
2021/11/20 09:26:16;;;;;;;42.75;22.95;;;;;;;12.20;75.20;101769.50;4971016;28;20047;-76
2021/11/20 09:29:02;;;;;;;42.38;22.63;;;;;;;12.29;73.35;101760.34;4961936;28;20039;-76
2021/11/20 09:31:50;;;;;;;50.60;23.67;;;;;;;12.14;74.40;101757.09;4959969;28;20047;-76
2021/11/20 09:34:35;;;;;;;53.88;24.63;;;;;;;12.18;74.63;101753.47;4960622;28;20405;-76
2021/11/20 09:37:19;;;;;;;;;;;;;;;12.07;74.36;101757.50;4961918;28;20050;-77
2021/11/20 09:40:24;;;;;;;45.70;22.58;;;;;;;11.94;74.02;101750.88;4946030;28;19914;-77
2021/11/20 09:43:16;;;;;;;47.97;22.67;;;;;;;12.03;74.42;101744.75;4943696;29;20051;-77
2021/11/20 09:46:30;;;;;;;40.05;20.98;;;;;;;11.85;74.32;101752.69;4956099;28;20505;-88
2021/11/20 09:49:30;;;;;;;40.50;19.95;;;;;;;12.34;70.41;101746.59;4969784;28;20054;-79
2021/11/20 09:52:17;;;;;;;52.53;21.38;;;;;;;13.10;68.26;101745.06;4957286;28;20039;-79
2021/11/20 09:55:04;;;;;;;35.50;20.02;;;;;;;13.28;66.34;101746.88;4978793;28;20046;-79
2021/11/20 09:57:54;;;;;;;35.45;19.60;;;;;;;13.30;66.33;101740.28;4975716;28;20047;-79
2021/11/20 10:00:58;;;;;;;41.42;21.38;;;;;;;13.07;67.04;101742.13;4977674;28;20429;-79
2021/11/20 10:04:06;;;;;;;39.83;21.30;;;;;;;12.69;68.23;101728.75;4983979;28;20046;-79
2021/11/20 10:07:13;;;;;;;42.78;20.27;;;;;;;12.46;68.74;101724.28;4981076;28;20042;-78
2021/11/20 10:10:20;;;;;;;43.28;19.75;;;;;;;12.86;67.80;101722.66;4976743;28;20050;-78
2021/11/20 10:13:22;;;;;;;45.47;21.15;;;;;;;12.81;68.13;101722.75;4978894;28;20046;-79
2021/11/20 10:16:16;;;;;;;38.90;20.73;;;;;;;12.98;67.51;101722.13;4985552;28;20493;-79
2021/11/20 10:19:22;;;;;;;44.38;21.33;;;;;;;13.09;67.01;101718.06;4982819;28;20035;-79
2021/11/20 10:22:13;;;;;;;39.22;19.80;;;;;;;12.67;68.40;101711.88;4985599;28;20043;-79
2021/11/20 10:25:09;;;;;;;45.05;19.98;;;;;;;12.57;68.48;101692.97;4974015;28;20047;-79
2021/11/20 10:28:08;;;;;;;41.03;20.27;;;;;;;12.59;67.86;101704.41;4974029;28;20039;-79
2021/11/20 10:31:30;;;;;;;44.40;21.25;;;;;;;12.58;67.58;101688.31;4979505;28;20058;-79
2021/11/20 10:34:23;;;;;;;38.67;20.05;;;;;;;12.59;68.08;101682.56;4968516;28;20502;-80
2021/11/20 10:37:19;;;;;;;45.20;21.52;;;;;;;12.84;67.24;101683.94;4973880;28;20047;-79
2021/11/20 10:40:18;;;;;;;41.40;20.23;;;;;;;12.96;67.01;101670.56;4973195;28;20039;-79
2021/11/20 10:43:12;;;;;;;41.63;20.90;;;;;;;12.96;66.53;101667.00;4982648;28;20050;-79
2021/11/20 10:46:06;;;;;;;46.28;21.50;;;;;;;12.91;67.10;101662.47;4973428;28;20047;-80
2021/11/20 10:49:22;;;;;;;42.42;20.65;;;;;;;12.94;67.43;101658.34;4976247;28;20476;-79
2021/11/20 10:52:13;;;;;;;43.63;20.95;;;;;;;12.84;67.43;101646.53;4973516;28;20039;-79
2021/11/20 10:55:16;;;;;;;43.97;21.50;;;;;;;13.03;67.13;101637.38;4968289;28;20494;-78
2021/11/20 10:58:15;;;;;;;48.00;21.75;;;;;;;13.17;66.32;101640.88;4980778;28;20501;-79
2021/11/20 11:01:38;;;;;;;44.97;21.27;;;;;;;13.55;64.87;101630.38;4975729;28;20039;-79
2021/11/20 11:04:59;;;;;;;46.63;20.83;;;;;;;13.74;64.85;101625.50;4978803;28;20040;-79
2021/11/20 11:08:19;;;;;;;40.63;19.95;;;;;;;13.94;64.12;101615.94;4980954;28;20051;-79
2021/11/20 11:11:43;;;;;;;40.40;19.23;;;;;;;13.99;63.61;101621.28;4947190;28;20047;-79
2021/11/20 11:14:37;;;;;;;38.50;19.40;;;;;;;13.65;63.73;101617.28;4973584;28;20046;-79
2021/11/20 11:18:00;;;;;;;38.58;19.25;;;;;;;13.56;65.04;101608.19;4979473;28;20038;-78
2021/11/20 11:21:21;;;;;;;42.25;19.58;;;;;;;13.65;65.24;101616.47;5030348;23;20051;-63
2021/11/20 11:24:12;;;;;;;48.90;19.92;;;;;;;13.52;64.96;101609.94;4973079;28;20047;-65
2021/11/20 11:27:26;;;;;;;48.22;22.02;;;;;;;13.40;65.68;101598.81;4973735;28;20039;-65
2021/11/20 11:30:31;;;;;;;44.45;20.98;;;;;;;13.74;64.73;101594.63;4968470;28;20165;-65
2021/11/20 11:33:17;;;;;;;36.50;18.10;;;;;;;13.84;64.35;101597.09;4970123;28;20508;-65
2021/11/20 11:36:11;;;;;;;45.20;21.95;;;;;;;14.13;63.42;101597.34;4965312;28;20043;-65
2021/11/20 11:39:20;;;;;;;44.92;22.92;;;;;;;14.63;61.88;101581.38;4956828;28;20401;-62
2021/11/20 11:42:11;;;;;;;47.03;22.70;;;;;;;15.21;60.32;101586.34;4965431;28;20047;-63
2021/11/20 11:45:07;;;;;;;50.45;22.38;;;;;;;15.79;58.97;101591.22;4939871;29;20047;-63
2021/11/20 11:47:59;;;;;;;44.72;22.40;;;;;;;15.55;59.03;101574.50;4953294;29;20039;-63
2021/11/20 11:51:09;;;;;;;40.55;21.05;;;;;;;14.94;60.66;101570.25;4963874;28;20047;-62
2021/11/20 11:54:12;;;;;;;47.50;24.05;;;;;;;14.55;62.38;101558.34;4974984;28;20042;-63
2021/11/20 11:57:12;;;;;;;45.40;22.17;;;;;;;14.58;62.80;101554.16;4964132;28;20499;-63
2021/11/20 12:00:15;;;;;;;51.50;24.83;;;;;;;14.30;63.61;101544.59;4969638;28;20038;-63
2021/11/20 12:03:23;;;;;;;45.63;23.27;;;;;;;14.14;63.90;101544.25;4956788;28;20039;-63
2021/11/20 12:06:14;;;;;;;48.58;23.83;;;;;;;14.23;63.99;101541.53;4961075;28;20522;-63
2021/11/20 12:09:00;;;;;;;47.38;23.48;;;;;;;14.31;63.18;101527.88;4960087;28;20317;-63
2021/11/20 12:11:47;;;;;;;48.22;23.95;;;;;;;14.37;62.42;101521.16;4968418;28;20068;-63
2021/11/20 12:14:39;;;;;;;46.10;24.00;;;;;;;14.47;62.69;101520.84;4969949;28;20050;-63
2021/11/20 12:17:33;;;;;;;57.72;21.83;;;;;;;14.70;62.00;101513.25;4970339;28;20043;-63
2021/11/20 12:20:37;;;;;;;45.88;21.42;;;;;;;14.51;61.25;101508.13;4979764;28;20042;-63
2021/11/20 12:23:37;;;;;;;48.42;22.95;;;;;;;14.72;60.78;101502.00;4977819;28;20031;-62
2021/11/20 12:26:36;;;;;;;47.75;21.13;;;;;;;15.03;60.40;101496.31;4969332;28;20038;-63
2021/11/20 12:29:48;;;;;;;42.40;20.65;;;;;;;15.05;59.33;101497.56;4978660;28;20035;-63
2021/11/20 12:32:42;;;;;;;49.45;23.95;;;;;;;15.08;60.22;101496.13;4969636;28;20047;-64
2021/11/20 12:35:37;;;;;;;42.65;21.70;;;;;;;14.95;59.78;101489.72;4965898;28;20035;-63
2021/11/20 12:38:50;;;;;;;46.05;22.52;;;;;;;14.94;59.38;101479.88;4975349;28;20055;-63
2021/11/20 12:42:13;;;;;;;47.22;22.08;;;;;;;15.16;59.86;101473.38;4968967;28;20035;-64
2021/11/20 12:45:39;;;;;;;45.55;21.60;;;;;;;18.36;50.86;101466.09;4968035;28;20034;-68
2021/11/20 12:48:52;;;;;;;39.80;21.92;;;;;;;22.67;39.37;101478.13;4967194;28;20043;-64
2021/11/20 12:51:49;;;;;;;36.17;20.30;;;;;;;25.24;33.80;101476.66;4966169;28;20046;-66
2021/11/20 12:55:09;;;;;;;36.40;22.05;;;;;;;26.21;31.95;101468.56;4961894;28;20043;-65
2021/11/20 12:58:08;;;;;;;34.40;18.95;;;;;;;26.76;31.27;101470.75;4964363;28;20047;-67
2021/11/20 13:00:56;;;;;;;43.25;21.45;;;;;;;26.31;31.45;101462.19;4967373;28;20496;-66
2021/11/20 13:03:44;;;;;;;63.35;26.02;;;;;;;26.36;31.05;101461.75;4971525;28;20046;-66
2021/11/20 13:06:32;;;;;;;46.13;22.13;;;;;;;26.33;31.31;101451.41;4967114;28;20043;-67
2021/11/20 13:09:57;;;;;;;43.53;21.73;;;;;;;25.79;31.93;101441.63;4970731;28;20047;-69
2021/11/20 13:12:48;;;;;;;38.90;21.25;;;;;;;24.67;34.31;101454.25;4976922;28;20051;-67
2021/11/20 13:16:00;;;;;;;52.35;25.67;;;;;;;22.74;37.21;101436.66;4968710;28;20043;-64
2021/11/20 13:19:04;;;;;;;45.90;23.48;;;;;;;22.30;38.90;101430.94;4958891;28;20047;-67